createdAt,value
2023-02-17T00:02:13.423Z,50.30
2023-02-17T00:04:40.328Z,50.47
2023-02-17T00:07:07.208Z,50.54
2023-02-17T00:09:34.141Z,50.69
2023-02-17T00:12:01.088Z,50.74
2023-02-17T00:14:27.973Z,50.68
2023-02-17T00:16:54.905Z,50.57
2023-02-17T00:19:25.358Z,50.58
2023-02-17T00:21:55.948Z,50.51
2023-02-17T00:24:23.577Z,50.84
2023-02-17T00:26:50.573Z,50.62
2023-02-17T00:29:17.714Z,50.87
2023-02-17T00:31:44.970Z,51.08
2023-02-17T00:34:12.449Z,50.96
2023-02-17T00:36:39.994Z,50.61
2023-02-17T00:39:07.323Z,50.70
2023-02-17T00:41:34.453Z,50.86
2023-02-17T00:44:01.247Z,50.89
2023-02-17T00:46:28.299Z,50.80
2023-02-17T00:48:55.329Z,51.04
2023-02-17T00:51:22.324Z,51.10
2023-02-17T00:53:49.567Z,51.11
2023-02-17T00:56:16.526Z,51.17
2023-02-17T00:58:43.724Z,51.15
2023-02-17T01:01:11.683Z,51.08
2023-02-17T01:03:38.547Z,51.34
2023-02-17T01:06:07.648Z,51.59
2023-02-17T01:08:34.760Z,51.59
2023-02-17T01:11:01.831Z,51.43
2023-02-17T01:13:28.682Z,51.39
2023-02-17T01:15:55.759Z,51.65
2023-02-17T01:18:23.477Z,51.59
2023-02-17T01:20:50.313Z,51.68
2023-02-17T01:23:17.292Z,51.91
2023-02-17T01:25:45.439Z,51.89
2023-02-17T01:28:15.523Z,51.95
2023-02-17T01:30:42.443Z,51.75
2023-02-17T01:33:09.338Z,52.04
2023-02-17T01:35:36.203Z,51.86
2023-02-17T01:38:03.065Z,51.83
2023-02-17T01:40:30.532Z,52.14
2023-02-17T01:42:57.381Z,52.21
2023-02-17T01:45:24.525Z,52.02
2023-02-17T01:47:54.389Z,51.86
2023-02-17T01:50:22.802Z,52.13
2023-02-17T01:52:50.079Z,51.90
2023-02-17T01:55:18.915Z,52.23
2023-02-17T01:57:47.135Z,52.33
2023-02-17T02:00:14.737Z,52.14
2023-02-17T02:02:44.511Z,52.15
2023-02-17T02:05:12.179Z,52.41
2023-02-17T02:07:40.862Z,52.31
2023-02-17T02:10:08.758Z,52.17
2023-02-17T02:12:37.707Z,52.57
2023-02-17T02:15:08.109Z,52.42
2023-02-17T02:17:45.129Z,52.34
2023-02-17T02:20:22.668Z,52.24
2023-02-17T02:22:52.579Z,52.55
2023-02-17T02:25:22.427Z,52.39
2023-02-17T02:27:49.607Z,52.79
2023-02-17T02:30:19.583Z,52.69
2023-02-17T02:32:49.671Z,52.58
2023-02-17T02:35:17.846Z,52.46
2023-02-17T02:37:47.750Z,52.85
2023-02-17T02:40:15.916Z,52.53
2023-02-17T02:42:44.047Z,52.64
2023-02-17T02:45:11.579Z,52.83
2023-02-17T02:47:41.463Z,52.73
2023-02-17T02:50:10.427Z,52.86
2023-02-17T02:52:37.589Z,53.01
2023-02-17T02:55:10.675Z,52.92
2023-02-17T02:57:40.597Z,52.80
2023-02-17T03:00:16.302Z,53.06
2023-02-17T03:02:46.250Z,52.93
2023-02-17T03:05:16.663Z,52.98
2023-02-17T03:07:43.833Z,53.05
2023-02-17T03:10:10.844Z,52.95
2023-02-17T03:12:40.177Z,53.25
2023-02-17T03:15:14.593Z,53.00
2023-02-17T03:17:41.409Z,53.20
2023-02-17T03:20:08.811Z,53.12
2023-02-17T03:22:37.166Z,53.16
2023-02-17T03:25:04.472Z,53.23
2023-02-17T03:27:31.294Z,53.27
2023-02-17T03:29:58.155Z,52.97
2023-02-17T03:32:25.195Z,53.26
2023-02-17T03:34:52.104Z,53.20
2023-02-17T03:37:19.606Z,53.31
2023-02-17T03:39:46.622Z,53.28
2023-02-17T03:42:13.413Z,53.32
2023-02-17T03:44:40.204Z,53.01
2023-02-17T03:47:07.601Z,53.31
2023-02-17T03:49:34.506Z,53.05
2023-02-17T03:52:01.437Z,53.29
2023-02-17T03:54:28.337Z,53.53
2023-02-17T03:56:55.217Z,53.35
2023-02-17T03:59:22.108Z,53.00
2023-02-17T04:01:49.023Z,53.29
2023-02-17T04:04:15.961Z,53.21
2023-02-17T04:06:42.823Z,53.01
2023-02-17T04:09:09.678Z,53.45
2023-02-17T04:11:36.547Z,53.16
2023-02-17T04:14:03.556Z,53.29
2023-02-17T04:16:30.444Z,53.04
2023-02-17T04:18:57.320Z,53.29
2023-02-17T04:21:24.310Z,53.07
2023-02-17T04:23:51.243Z,53.31
2023-02-17T04:26:18.067Z,53.20
2023-02-17T04:28:44.898Z,53.03
2023-02-17T04:31:11.813Z,53.17
2023-02-17T04:33:38.739Z,53.18
2023-02-17T04:36:06.241Z,53.49
2023-02-17T04:38:33.564Z,53.12
2023-02-17T04:41:00.796Z,53.17
2023-02-17T04:43:28.344Z,53.27
2023-02-17T04:45:55.579Z,53.33
2023-02-17T04:48:22.855Z,53.23
2023-02-17T04:50:49.647Z,53.60
2023-02-17T04:53:16.505Z,53.32
2023-02-17T04:55:43.369Z,53.56
2023-02-17T04:58:10.542Z,53.23
2023-02-17T05:00:37.678Z,53.47
2023-02-17T05:03:04.875Z,53.25
2023-02-17T05:05:31.687Z,53.12
2023-02-17T05:07:58.571Z,53.07
2023-02-17T05:10:25.432Z,53.05
2023-02-17T05:12:52.864Z,53.30
2023-02-17T05:15:19.828Z,53.05
2023-02-17T05:17:46.686Z,53.18
2023-02-17T05:20:13.886Z,53.08
2023-02-17T05:22:40.769Z,53.32
2023-02-17T05:25:07.736Z,53.12
2023-02-17T05:27:37.478Z,53.26
2023-02-17T05:30:04.869Z,53.46
2023-02-17T05:32:31.742Z,53.24
2023-02-17T05:34:58.650Z,53.35
2023-02-17T05:37:25.485Z,53.12
2023-02-17T05:39:52.365Z,53.34
2023-02-17T05:42:19.201Z,53.01
2023-02-17T05:44:46.091Z,52.92
2023-02-17T05:47:12.966Z,53.10
2023-02-17T05:49:39.825Z,52.77
2023-02-17T05:52:06.683Z,53.15
2023-02-17T05:54:33.549Z,53.16
2023-02-17T05:57:00.533Z,52.79
2023-02-17T05:59:27.465Z,52.92
2023-02-17T06:01:54.361Z,52.81
2023-02-17T06:04:21.241Z,52.72
2023-02-17T06:06:48.077Z,52.72
2023-02-17T06:09:14.936Z,52.86
2023-02-17T06:11:41.772Z,52.67
2023-02-17T06:14:08.586Z,52.52
2023-02-17T06:16:35.480Z,52.65
2023-02-17T06:19:02.851Z,52.86
2023-02-17T06:21:29.644Z,52.61
2023-02-17T06:23:56.590Z,52.41
2023-02-17T06:26:23.498Z,52.49
2023-02-17T06:28:50.375Z,52.51
2023-02-17T06:31:17.274Z,52.65
2023-02-17T06:33:44.449Z,52.48
2023-02-17T06:36:11.326Z,52.64
2023-02-17T06:38:38.147Z,52.53
2023-02-17T06:41:05.124Z,52.76
2023-02-17T06:43:32.021Z,52.33
2023-02-17T06:45:58.860Z,52.32
2023-02-17T06:48:25.822Z,52.34
2023-02-17T06:50:52.685Z,52.62
2023-02-17T06:53:19.755Z,52.57
2023-02-17T06:55:46.617Z,52.32
2023-02-17T06:58:13.528Z,52.41
2023-02-17T07:00:40.409Z,52.30
2023-02-17T07:03:07.342Z,52.58
2023-02-17T07:05:36.598Z,52.39
2023-02-17T07:08:04.393Z,52.22
2023-02-17T07:10:31.724Z,52.61
2023-02-17T07:12:58.658Z,52.63
2023-02-17T07:15:25.519Z,52.52
2023-02-17T07:17:52.430Z,52.70
2023-02-17T07:20:19.440Z,52.49
2023-02-17T07:22:46.313Z,52.72
2023-02-17T07:25:13.485Z,52.62
2023-02-17T07:27:40.391Z,52.28
2023-02-17T07:30:07.759Z,52.39
2023-02-17T07:32:35.836Z,52.47
2023-02-17T07:35:02.819Z,52.16
2023-02-17T07:37:29.681Z,52.07
2023-02-17T07:39:57.454Z,51.86
2023-02-17T07:42:24.549Z,51.95
2023-02-17T07:44:51.435Z,51.94
2023-02-17T07:47:18.368Z,51.61
2023-02-17T07:49:45.263Z,51.38
2023-02-17T07:52:12.223Z,51.40
2023-02-17T07:54:39.037Z,51.21
2023-02-17T07:57:05.913Z,51.38
2023-02-17T07:59:32.835Z,51.41
2023-02-17T08:01:59.710Z,50.80
2023-02-17T08:04:26.802Z,51.13
2023-02-17T08:06:53.761Z,50.88
2023-02-17T08:09:23.665Z,51.55
2023-02-17T08:11:53.622Z,52.41
2023-02-17T08:14:22.772Z,53.44
2023-02-17T08:16:49.646Z,52.43
2023-02-17T08:19:16.773Z,51.96
2023-02-17T08:21:43.784Z,53.39
2023-02-17T08:24:11.165Z,53.35
2023-02-17T08:26:38.455Z,52.29
2023-02-17T08:29:05.336Z,52.01
2023-02-17T08:31:33.738Z,51.32
2023-02-17T08:34:01.546Z,51.35
2023-02-17T08:36:29.283Z,50.81
2023-02-17T08:38:56.446Z,50.99
2023-02-17T08:41:23.714Z,50.40
2023-02-17T08:43:51.371Z,50.36
2023-02-17T08:46:19.660Z,50.49
2023-02-17T08:48:47.141Z,50.77
2023-02-17T08:51:15.391Z,51.13
2023-02-17T08:53:42.840Z,50.83
2023-02-17T08:56:10.347Z,50.77
2023-02-17T08:58:37.575Z,50.23
2023-02-17T09:01:04.752Z,50.43
2023-02-17T09:03:34.198Z,49.87
2023-02-17T09:06:01.880Z,50.08
2023-02-17T09:08:28.764Z,49.75
2023-02-17T09:10:56.089Z,49.76
2023-02-17T09:13:23.028Z,49.33
2023-02-17T09:15:50.083Z,48.94
2023-02-17T09:18:17.076Z,49.07
2023-02-17T09:20:44.045Z,48.97
2023-02-17T09:23:11.188Z,48.92
2023-02-17T09:25:38.203Z,48.20
2023-02-17T09:28:05.473Z,48.33
2023-02-17T09:30:32.858Z,48.43
2023-02-17T09:33:00.125Z,48.42
2023-02-17T09:35:27.451Z,48.49
2023-02-17T09:37:54.734Z,47.89
2023-02-17T09:40:24.472Z,48.23
2023-02-17T09:42:51.659Z,47.98
2023-02-17T09:45:21.345Z,47.75
2023-02-17T09:47:50.067Z,48.09
2023-02-17T09:50:20.138Z,47.99
2023-02-17T09:52:49.467Z,48.00
2023-02-17T09:55:20.769Z,47.92
2023-02-17T09:57:52.409Z,47.86
2023-02-17T10:00:27.396Z,47.64
2023-02-17T10:02:56.344Z,47.79
2023-02-17T10:05:24.581Z,47.79
2023-02-17T10:07:53.562Z,47.60
2023-02-17T10:10:25.031Z,47.49
2023-02-17T10:12:55.901Z,47.72
2023-02-17T10:15:25.434Z,47.34
2023-02-17T10:17:53.781Z,47.55
2023-02-17T10:20:23.778Z,47.79
2023-02-17T10:22:53.363Z,47.52
2023-02-17T10:25:23.958Z,47.59
2023-02-17T10:27:52.340Z,47.89
2023-02-17T10:30:27.084Z,48.03
2023-02-17T10:33:01.481Z,47.76
2023-02-17T10:35:31.397Z,47.50
2023-02-17T10:38:01.356Z,47.96
2023-02-17T10:40:29.911Z,47.88
2023-02-17T10:42:59.199Z,47.79
2023-02-17T10:45:27.469Z,47.95
2023-02-17T10:47:58.319Z,48.04
2023-02-17T10:50:25.877Z,48.13
2023-02-17T10:52:53.842Z,48.01
2023-02-17T10:55:25.049Z,47.66
2023-02-17T10:57:54.967Z,47.90
2023-02-17T11:00:23.075Z,47.73
2023-02-17T11:02:52.541Z,47.99
2023-02-17T11:05:22.159Z,48.08
2023-02-17T11:07:52.561Z,47.88
2023-02-17T11:10:20.851Z,48.11
2023-02-17T11:12:50.153Z,48.16
2023-02-17T11:15:19.459Z,48.28
2023-02-17T11:17:47.049Z,48.21
2023-02-17T11:20:14.534Z,48.18
2023-02-17T11:22:44.881Z,48.01
2023-02-17T11:25:14.780Z,48.54
2023-02-17T11:27:41.743Z,48.15
2023-02-17T11:30:10.099Z,48.63
2023-02-17T11:32:37.059Z,48.58
2023-02-17T11:35:06.736Z,48.70
2023-02-17T11:37:38.263Z,48.37
2023-02-17T11:40:15.725Z,49.22
2023-02-17T11:42:42.630Z,49.00
2023-02-17T11:45:12.564Z,49.56
2023-02-17T11:47:44.712Z,49.49
2023-02-17T11:50:11.949Z,49.59
2023-02-17T11:52:47.450Z,49.63
2023-02-17T11:55:17.428Z,49.73
2023-02-17T11:57:53.314Z,49.71
2023-02-17T12:00:20.725Z,49.91
2023-02-17T12:02:48.033Z,49.67
2023-02-17T12:05:22.450Z,49.74
2023-02-17T12:07:56.510Z,50.20
2023-02-17T12:10:27.180Z,50.17
2023-02-17T12:12:57.127Z,50.00
2023-02-17T12:15:27.309Z,49.86
2023-02-17T12:17:57.401Z,49.94
2023-02-17T12:20:33.259Z,50.23
2023-02-17T12:23:06.826Z,50.13
2023-02-17T12:25:37.878Z,50.36
2023-02-17T12:28:07.797Z,49.99
2023-02-17T12:30:37.920Z,49.95
2023-02-17T12:33:05.325Z,50.20
2023-02-17T12:35:41.419Z,50.22
2023-02-17T12:38:12.206Z,50.29
2023-02-17T12:40:42.230Z,50.40
2023-02-17T12:43:19.759Z,50.52
2023-02-17T12:45:48.692Z,50.72
2023-02-17T12:48:22.917Z,50.50
2023-02-17T12:50:52.861Z,50.48
2023-02-17T12:53:26.147Z,50.74
2023-02-17T12:55:57.870Z,50.69
2023-02-17T12:58:27.158Z,51.03
2023-02-17T13:00:59.881Z,50.79
2023-02-17T13:03:29.578Z,50.42
2023-02-17T13:05:59.672Z,50.72
2023-02-17T13:08:33.904Z,50.91
2023-02-17T13:11:02.624Z,50.79
2023-02-17T13:13:31.104Z,50.52
2023-02-17T13:16:01.435Z,50.85
2023-02-17T13:18:29.672Z,50.85
2023-02-17T13:21:00.147Z,50.37
2023-02-17T13:23:28.823Z,50.97
2023-02-17T13:25:58.847Z,50.60
2023-02-17T13:28:28.802Z,51.05
2023-02-17T13:30:56.830Z,50.96
2023-02-17T13:33:24.394Z,51.01
2023-02-17T13:35:51.587Z,50.77
2023-02-17T13:38:21.604Z,50.90
2023-02-17T13:40:51.692Z,50.97
2023-02-17T13:43:20.154Z,51.38
2023-02-17T13:45:50.226Z,51.43
2023-02-17T13:48:18.549Z,51.34
2023-02-17T13:50:48.105Z,51.13
2023-02-17T13:53:21.103Z,51.35
2023-02-17T13:55:48.230Z,51.00
2023-02-17T13:58:15.184Z,51.04
2023-02-17T14:00:43.916Z,50.86
2023-02-17T14:03:18.540Z,50.57
2023-02-17T14:05:46.543Z,50.64
2023-02-17T14:08:16.536Z,50.31
2023-02-17T14:10:43.786Z,50.44
2023-02-17T14:13:11.737Z,50.14
2023-02-17T14:15:49.224Z,50.15
2023-02-17T14:18:17.139Z,50.02
2023-02-17T14:20:44.124Z,50.20
2023-02-17T14:23:12.440Z,50.10
2023-02-17T14:25:40.967Z,49.58
2023-02-17T14:28:10.917Z,49.54
2023-02-17T14:30:39.583Z,49.62
2023-02-17T14:33:07.115Z,50.48
2023-02-17T14:35:35.531Z,49.77
2023-02-17T14:38:05.563Z,49.88
2023-02-17T14:40:32.507Z,49.56
2023-02-17T14:42:59.529Z,49.25
2023-02-17T14:45:26.543Z,49.31
2023-02-17T14:47:53.514Z,49.13
2023-02-17T14:50:20.487Z,49.16
2023-02-17T14:52:48.368Z,49.22
2023-02-17T14:55:18.539Z,49.20
2023-02-17T14:57:45.657Z,49.36
2023-02-17T15:00:14.491Z,49.35
2023-02-17T15:02:41.543Z,49.07
2023-02-17T15:05:08.575Z,49.31
2023-02-17T15:07:35.789Z,48.98
2023-02-17T15:10:02.892Z,49.06
2023-02-17T15:12:29.900Z,49.24
2023-02-17T15:14:57.086Z,48.80
2023-02-17T15:17:24.099Z,49.03
2023-02-17T15:19:51.135Z,48.93
2023-02-17T15:22:18.154Z,49.02
2023-02-17T15:24:45.214Z,49.17
2023-02-17T15:27:13.486Z,49.22
2023-02-17T15:29:40.427Z,49.47
2023-02-17T15:32:12.968Z,49.04
2023-02-17T15:34:40.478Z,49.25
2023-02-17T15:37:07.396Z,49.22
2023-02-17T15:39:34.344Z,49.03
2023-02-17T15:42:04.803Z,48.94
2023-02-17T15:44:38.515Z,49.67
2023-02-17T15:47:05.938Z,49.38
2023-02-17T15:49:32.864Z,49.42
2023-02-17T15:51:59.780Z,49.53
2023-02-17T15:54:26.684Z,49.34
2023-02-17T15:56:53.823Z,49.28
2023-02-17T15:59:23.821Z,49.35
2023-02-17T16:01:52.063Z,49.28
2023-02-17T16:04:19.229Z,49.25
2023-02-17T16:06:46.124Z,49.43
2023-02-17T16:09:13.143Z,49.20
2023-02-17T16:11:46.431Z,49.42
2023-02-17T16:14:21.445Z,49.56
2023-02-17T16:16:48.553Z,49.75
2023-02-17T16:19:15.491Z,49.59
2023-02-17T16:21:42.375Z,49.57
2023-02-17T16:24:09.294Z,49.60
2023-02-17T16:26:37.454Z,49.64
2023-02-17T16:29:11.361Z,49.62
2023-02-17T16:31:38.430Z,49.49
2023-02-17T16:34:05.372Z,49.81
2023-02-17T16:36:34.543Z,49.58
2023-02-17T16:39:04.327Z,49.79
2023-02-17T16:41:31.244Z,49.68
2023-02-17T16:43:58.145Z,49.93
2023-02-17T16:46:29.917Z,49.97
2023-02-17T16:48:58.054Z,49.85
2023-02-17T16:51:25.178Z,50.11
2023-02-17T16:53:52.140Z,49.99
2023-02-17T16:56:22.104Z,50.03
2023-02-17T16:58:49.089Z,49.66
2023-02-17T17:01:16.005Z,49.85
2023-02-17T17:03:43.357Z,50.10
2023-02-17T17:06:13.363Z,49.84
2023-02-17T17:08:40.324Z,49.75
2023-02-17T17:11:07.244Z,49.88
2023-02-17T17:13:34.177Z,50.08
2023-02-17T17:16:01.163Z,50.09
2023-02-17T17:18:28.066Z,49.89
2023-02-17T17:20:54.961Z,50.08
2023-02-17T17:23:22.008Z,49.79
2023-02-17T17:25:48.934Z,49.73
2023-02-17T17:28:18.100Z,49.89
2023-02-17T17:30:45.765Z,50.12
2023-02-17T17:33:12.614Z,49.83
2023-02-17T17:35:39.591Z,50.23
2023-02-17T17:38:06.640Z,49.84
2023-02-17T17:40:48.790Z,50.31
2023-02-17T17:43:16.665Z,49.91
2023-02-17T17:45:43.713Z,50.00
2023-02-17T17:48:13.462Z,50.02
2023-02-17T17:50:40.755Z,50.35
2023-02-17T17:53:07.723Z,50.14
2023-02-17T17:55:34.672Z,50.33
2023-02-17T17:58:01.671Z,50.52
2023-02-17T18:00:28.969Z,50.41
2023-02-17T18:02:56.099Z,50.55
2023-02-17T18:05:23.096Z,50.43
2023-02-17T18:07:50.863Z,50.37
2023-02-17T18:10:18.124Z,50.37
2023-02-17T18:12:45.978Z,50.67
2023-02-17T18:15:13.100Z,50.44
2023-02-17T18:17:42.427Z,50.68
2023-02-17T18:20:10.823Z,50.73
2023-02-17T18:22:38.024Z,50.80
2023-02-17T18:25:05.318Z,50.96
2023-02-17T18:27:35.276Z,50.68
2023-02-17T18:30:02.327Z,50.72
2023-02-17T18:32:29.634Z,50.91
2023-02-17T18:34:58.699Z,51.07
2023-02-17T18:37:26.267Z,51.20
2023-02-17T18:39:53.304Z,50.93
2023-02-17T18:42:20.292Z,50.98
2023-02-17T18:44:47.316Z,51.07
2023-02-17T18:47:14.202Z,50.93
2023-02-17T18:49:41.469Z,51.30
2023-02-17T18:52:08.404Z,51.22
2023-02-17T18:54:35.503Z,51.45
2023-02-17T18:57:02.680Z,51.44
2023-02-17T18:59:29.689Z,51.54
2023-02-17T19:01:56.708Z,51.61
2023-02-17T19:04:23.763Z,51.28
2023-02-17T19:06:50.884Z,51.59
2023-02-17T19:09:17.930Z,51.39
2023-02-17T19:11:44.844Z,51.51
2023-02-17T19:14:12.779Z,51.56
2023-02-17T19:16:39.807Z,51.41
2023-02-17T19:19:06.727Z,51.41
2023-02-17T19:21:36.198Z,51.77
2023-02-17T19:24:03.507Z,51.49
2023-02-17T19:26:30.472Z,51.74
2023-02-17T19:28:57.572Z,51.83
2023-02-17T19:31:24.696Z,52.09
2023-02-17T19:33:51.808Z,51.96
2023-02-17T19:36:20.452Z,51.97
2023-02-17T19:38:47.983Z,51.79
2023-02-17T19:41:15.313Z,51.88
2023-02-17T19:43:43.185Z,51.94
2023-02-17T19:46:12.811Z,51.98
2023-02-17T19:48:39.966Z,51.99
2023-02-17T19:51:07.948Z,51.99
2023-02-17T19:53:35.740Z,51.87
2023-02-17T19:56:11.793Z,52.14
2023-02-17T19:58:39.310Z,51.98
2023-02-17T20:01:07.654Z,51.94
2023-02-17T20:03:34.687Z,51.91
2023-02-17T20:06:05.262Z,52.28
2023-02-17T20:08:32.539Z,52.18
2023-02-17T20:10:59.649Z,52.22
2023-02-17T20:13:28.684Z,52.22
2023-02-17T20:15:59.331Z,52.32
2023-02-17T20:18:26.306Z,52.18
2023-02-17T20:20:54.667Z,52.34
2023-02-17T20:23:22.532Z,52.35
2023-02-17T20:25:49.712Z,52.35
2023-02-17T20:28:16.752Z,52.33
2023-02-17T20:30:43.953Z,52.36
2023-02-17T20:33:11.574Z,52.37
2023-02-17T20:35:38.566Z,52.42
2023-02-17T20:38:05.731Z,52.62
2023-02-17T20:40:33.098Z,52.44
2023-02-17T20:43:00.484Z,52.44
2023-02-17T20:45:27.648Z,52.30
2023-02-17T20:47:54.736Z,52.65
2023-02-17T20:50:22.200Z,52.39
2023-02-17T20:52:49.237Z,52.74
2023-02-17T20:55:18.071Z,52.45
2023-02-17T20:57:45.075Z,52.44
2023-02-17T21:00:15.349Z,52.79
2023-02-17T21:02:42.376Z,52.61
2023-02-17T21:05:09.736Z,52.66
2023-02-17T21:07:36.933Z,52.42
2023-02-17T21:10:04.937Z,52.82
2023-02-17T21:12:31.936Z,52.91
2023-02-17T21:14:58.843Z,52.57
2023-02-17T21:17:25.784Z,52.81
2023-02-17T21:19:52.819Z,52.78
2023-02-17T21:22:19.812Z,53.29
2023-02-17T21:24:46.954Z,53.04
2023-02-17T21:27:14.039Z,53.19
2023-02-17T21:29:41.092Z,53.17
2023-02-17T21:32:08.229Z,52.75
2023-02-17T21:34:37.887Z,53.17
2023-02-17T21:37:05.551Z,53.24
2023-02-17T21:39:32.463Z,53.06
2023-02-17T21:41:59.485Z,53.33
2023-02-17T21:44:29.579Z,53.31
2023-02-17T21:46:56.747Z,52.98
2023-02-17T21:49:23.873Z,53.41
2023-02-17T21:51:50.888Z,53.21
2023-02-17T21:54:17.806Z,52.94
2023-02-17T21:56:44.768Z,53.03
2023-02-17T21:59:11.826Z,53.26
2023-02-17T22:01:38.796Z,53.39
2023-02-17T22:04:05.855Z,53.48
2023-02-17T22:06:35.972Z,53.57
2023-02-17T22:09:03.950Z,53.26
2023-02-17T22:11:32.521Z,53.32
2023-02-17T22:14:02.117Z,53.57
2023-02-17T22:16:31.337Z,53.76
2023-02-17T22:18:58.530Z,53.37
2023-02-17T22:21:25.455Z,53.73
2023-02-17T22:23:52.593Z,53.69
2023-02-17T22:26:21.060Z,53.36
2023-02-17T22:28:48.792Z,53.73
2023-02-17T22:31:17.186Z,53.58
2023-02-17T22:33:44.354Z,54.05
2023-02-17T22:36:13.011Z,53.72
2023-02-17T22:38:40.134Z,53.80
2023-02-17T22:41:08.388Z,53.58
2023-02-17T22:43:36.348Z,53.85
2023-02-17T22:46:03.497Z,53.55
2023-02-17T22:48:31.192Z,53.51
2023-02-17T22:50:58.333Z,53.66
2023-02-17T22:53:25.284Z,53.93
2023-02-17T22:55:53.732Z,53.90
2023-02-17T22:58:21.588Z,53.69
2023-02-17T23:00:49.221Z,54.10
2023-02-17T23:03:16.968Z,54.07
2023-02-17T23:05:44.216Z,54.13
2023-02-17T23:08:11.604Z,53.69
2023-02-17T23:10:40.362Z,53.89
2023-02-17T23:13:07.314Z,53.91
2023-02-17T23:15:37.451Z,54.08
2023-02-17T23:18:04.451Z,54.02
2023-02-17T23:20:31.419Z,53.95
2023-02-17T23:22:58.520Z,53.94
2023-02-17T23:25:25.531Z,53.83
2023-02-17T23:27:52.440Z,54.21
2023-02-17T23:30:20.865Z,54.08
2023-02-17T23:32:48.079Z,54.17
2023-02-17T23:35:16.940Z,54.21
2023-02-17T23:37:43.985Z,54.29
2023-02-17T23:40:11.361Z,53.99
2023-02-17T23:42:38.572Z,53.87
2023-02-17T23:45:06.054Z,54.26
2023-02-17T23:47:32.971Z,54.24
2023-02-17T23:49:59.972Z,54.30
2023-02-17T23:52:26.930Z,54.25
2023-02-17T23:54:53.908Z,53.74
2023-02-17T23:57:20.850Z,53.70
2023-02-17T23:59:47.741Z,53.87
